Time;durP1;ratioP1;P1;durP2;ratioP2;P2;SDS_P1;SDS_P2;PMS_P1;PMS_P2;Temp;Humidity;BMP_temperature;BMP_pressure;BME280_temperature;BME280_humidity;BME280_pressure;Samples;Min_cycle;Max_cycle;Signal;HPM_P1;HPM_P2
2023/03/12 00:01:41;;;;;;;;;;;18.90;72.70;;;;;;5085939;28;43157;-80
2023/03/12 00:04:06;;;;;;;;;;;18.60;72.60;;;;;;5080074;28;42915;-80
2023/03/12 00:06:32;;;;;;;;;;;18.60;72.60;;;;;;5076384;28;42993;-80
2023/03/12 00:09:00;;;;;;;;;;;18.70;72.80;;;;;;5086490;28;43029;-80
2023/03/12 00:11:26;;;;;;;;;;;18.70;72.80;;;;;;5069609;28;44347;-78
2023/03/12 00:13:53;;;;;;;;;;;18.50;72.70;;;;;;5081067;27;42930;-79
2023/03/12 00:16:19;;;;;;;;;;;18.70;72.90;;;;;;5054915;28;44458;-78
2023/03/12 00:18:46;;;;;;;;;;;18.60;72.90;;;;;;5071693;28;44001;-78
2023/03/12 00:21:12;;;;;;;;;;;18.50;72.70;;;;;;5078118;27;43548;-80
2023/03/12 00:23:37;;;;;;;;;;;18.60;72.90;;;;;;5076863;28;43080;-79
2023/03/12 00:26:04;;;;;;;;;;;18.50;73.00;;;;;;5065490;28;43529;-78
2023/03/12 00:28:30;;;;;;;;;;;18.60;72.90;;;;;;5075768;28;43029;-79
2023/03/12 00:30:57;;;;;;;;;;;18.50;73.00;;;;;;5074040;28;43637;-78
2023/03/12 00:33:23;;;;;;;;;;;18.40;73.00;;;;;;5084861;28;42932;-79
2023/03/12 00:35:49;;;;;;;;;;;18.50;73.00;;;;;;5067725;27;43964;-79
2023/03/12 00:38:14;;;;;;;;;;;18.50;73.20;;;;;;5084086;28;42969;-79
2023/03/12 00:40:40;;;;;;;;;;;18.60;73.50;;;;;;5074670;28;42903;-79
2023/03/12 00:43:05;;;;;;;;;;;18.60;73.20;;;;;;5080132;28;42894;-79
2023/03/12 00:45:31;;;;;;;;;;;18.50;73.40;;;;;;5070958;28;43248;-78
2023/03/12 00:47:56;;;;;;;;;;;18.50;73.50;;;;;;5065323;28;42995;-78
2023/03/12 00:50:22;;;;;;;;;;;18.50;73.40;;;;;;5070663;28;43347;-78
2023/03/12 00:52:47;;;;;;;;;;;18.60;73.50;;;;;;5084319;28;43016;-78
2023/03/12 00:55:13;;;;;;;;;;;18.60;73.50;;;;;;5084914;28;43185;-78
2023/03/12 00:57:38;;;;;;;;;;;18.50;73.50;;;;;;5085154;28;42872;-78
2023/03/12 01:00:09;;;;;;;;;;;18.60;73.60;;;;;;5086236;28;43535;-78
2023/03/12 01:02:34;;;;;;;;;;;18.60;73.10;;;;;;5085827;28;42929;-78
2023/03/12 01:05:00;;;;;;;;;;;18.60;73.50;;;;;;5086311;28;42969;-78
2023/03/12 01:07:25;;;;;;;;;;;18.50;73.50;;;;;;5082562;28;42958;-79
2023/03/12 01:09:51;;;;;;;;;;;18.50;73.50;;;;;;5072128;28;44327;-79
2023/03/12 01:12:16;;;;;;;;;;;18.20;73.50;;;;;;5073836;28;43060;-80
2023/03/12 01:14:42;;;;;;;;;;;18.50;73.70;;;;;;5054747;28;43148;-80
2023/03/12 01:17:07;;;;;;;;;;;18.60;74.40;;;;;;5075119;28;43040;-80
2023/03/12 01:19:33;;;;;;;;;;;18.50;73.80;;;;;;5073591;28;43546;-79
2023/03/12 01:21:58;;;;;;;;;;;18.60;74.10;;;;;;5073185;28;42926;-80
2023/03/12 01:24:24;;;;;;;;;;;18.60;73.90;;;;;;5074878;28;44301;-80
2023/03/12 01:26:49;;;;;;;;;;;18.40;73.60;;;;;;5073016;28;42758;-79
2023/03/12 01:29:15;;;;;;;;;;;18.70;73.80;;;;;;5073510;28;42769;-79
2023/03/12 01:31:40;;;;;;;;;;;18.60;74.00;;;;;;5069260;28;42894;-81
2023/03/12 01:34:08;;;;;;;;;;;18.60;74.00;;;;;;5045359;28;44611;-81
2023/03/12 01:36:34;;;;;;;;;;;18.60;74.00;;;;;;5064014;28;43125;-81
2023/03/12 01:38:59;;;;;;;;;;;18.50;73.90;;;;;;5063869;28;43483;-81
2023/03/12 01:41:26;;;;;;;;;;;18.60;74.10;;;;;;5063717;28;42916;-81
2023/03/12 01:43:51;;;;;;;;;;;18.60;74.20;;;;;;5064238;28;42835;-81
2023/03/12 01:46:25;;;;;;;;;;;18.60;74.20;;;;;;5063412;28;43049;-80
2023/03/12 01:49:03;;;;;;;;;;;18.60;73.00;;;;;;5063942;28;43115;-82
2023/03/12 01:51:33;;;;;;;;;;;18.60;73.00;;;;;;5063993;28;42835;-82
2023/03/12 01:54:01;;;;;;;;;;;18.60;74.20;;;;;;5063776;28;43170;-82
2023/03/12 01:56:29;;;;;;;;;;;18.60;74.30;;;;;;5064062;28;42979;-81
2023/03/12 01:58:56;;;;;;;;;;;18.60;74.30;;;;;;5059864;28;44345;-81
2023/03/12 02:01:22;;;;;;;;;;;18.60;74.30;;;;;;5062695;28;43401;-82
2023/03/12 02:03:50;;;;;;;;;;;18.60;74.50;;;;;;5063360;28;43707;-81
2023/03/12 02:06:18;;;;;;;;;;;18.70;74.40;;;;;;5064004;28;42937;-81
2023/03/12 02:08:46;;;;;;;;;;;18.60;74.50;;;;;;5063069;28;43775;-83
2023/03/12 02:11:11;;;;;;;;;;;18.70;74.50;;;;;;5063651;28;42871;-83
2023/03/12 02:13:37;;;;;;;;;;;18.60;74.40;;;;;;5063842;28;43582;-84
2023/03/12 02:16:03;;;;;;;;;;;19.30;74.90;;;;;;5063909;28;43200;-84
2023/03/12 02:18:29;;;;;;;;;;;18.50;74.40;;;;;;5063621;28;43168;-83
2023/03/12 02:20:57;;;;;;;;;;;18.50;74.60;;;;;;5063351;28;42826;-82
2023/03/12 02:23:26;;;;;;;;;;;18.60;74.80;;;;;;5063502;28;43719;-81
2023/03/12 02:25:52;;;;;;;;;;;18.70;73.60;;;;;;5064044;28;42990;-81
2023/03/12 02:28:19;;;;;;;;;;;18.70;74.90;;;;;;5063923;28;43638;-81
2023/03/12 02:30:47;;;;;;;;;;;18.60;75.00;;;;;;5062857;28;43063;-81
2023/03/12 02:33:14;;;;;;;;;;;18.60;74.90;;;;;;5063056;28;43712;-81
2023/03/12 02:35:40;;;;;;;;;;;18.80;75.10;;;;;;5063106;28;42832;-81
2023/03/12 02:38:43;;;;;;;;;;;18.60;75.10;;;;;;5070341;27;43077;-81
2023/03/12 02:41:11;;;;;;;;;;;18.70;74.10;;;;;;5023075;28;42995;-81
2023/03/12 02:43:37;;;;;;;;;;;18.60;75.20;;;;;;5024288;28;42932;-82
2023/03/12 02:46:03;;;;;;;;;;;18.50;75.20;;;;;;5024181;28;42964;-82
2023/03/12 02:48:28;;;;;;;;;;;18.60;75.00;;;;;;5024062;28;43617;-81
2023/03/12 02:50:54;;;;;;;;;;;18.60;75.30;;;;;;5023697;28;42939;-81
2023/03/12 02:53:19;;;;;;;;;;;18.70;75.30;;;;;;5023734;28;42964;-82
2023/03/12 02:55:45;;;;;;;;;;;18.60;75.40;;;;;;5023732;28;42958;-82
2023/03/12 02:58:10;;;;;;;;;;;18.70;75.60;;;;;;5023487;28;42879;-82
2023/03/12 03:00:36;;;;;;;;;;;18.60;75.50;;;;;;5024044;28;42959;-78
2023/03/12 03:03:02;;;;;;;;;;;18.70;75.60;;;;;;5024095;28;43654;-82
2023/03/12 03:05:27;;;;;;;;;;;18.50;75.60;;;;;;5023522;28;43211;-82
2023/03/12 03:07:53;;;;;;;;;;;18.70;75.70;;;;;;5022364;28;44144;-81
2023/03/12 03:10:18;;;;;;;;;;;18.50;75.60;;;;;;5023448;28;43105;-81
2023/03/12 03:12:44;;;;;;;;;;;18.60;75.80;;;;;;5076299;28;42864;-82
2023/03/12 03:15:10;;;;;;;;;;;18.50;75.70;;;;;;5084366;28;42868;-83
2023/03/12 03:17:36;;;;;;;;;;;18.60;75.80;;;;;;5086397;28;42867;-84
2023/03/12 03:20:05;;;;;;;;;;;18.60;76.00;;;;;;5086643;28;42789;-84
2023/03/12 03:22:31;;;;;;;;;;;18.70;76.00;;;;;;5086519;28;43295;-82
2023/03/12 03:24:56;;;;;;;;;;;18.60;75.90;;;;;;5086861;28;43017;-83
2023/03/12 03:27:22;;;;;;;;;;;18.50;76.00;;;;;;5086381;28;43433;-82
2023/03/12 03:29:47;;;;;;;;;;;18.70;76.00;;;;;;5086393;28;42977;-82
2023/03/12 03:32:13;;;;;;;;;;;18.50;76.50;;;;;;5085885;28;43878;-83
2023/03/12 03:34:38;;;;;;;;;;;18.60;75.90;;;;;;5085693;28;43082;-83
2023/03/12 03:37:04;;;;;;;;;;;18.80;75.90;;;;;;5085823;28;42994;-83
2023/03/12 03:39:30;;;;;;;;;;;18.70;75.90;;;;;;5086426;28;42930;-82
2023/03/12 03:41:55;;;;;;;;;;;18.80;76.00;;;;;;5086318;28;43554;-84
2023/03/12 03:44:21;;;;;;;;;;;18.60;76.00;;;;;;5086409;28;42922;-82
2023/03/12 03:46:47;;;;;;;;;;;18.60;76.00;;;;;;5085901;28;42898;-83
2023/03/12 03:49:13;;;;;;;;;;;18.70;76.70;;;;;;5085025;28;43085;-83
2023/03/12 03:51:41;;;;;;;;;;;18.60;76.00;;;;;;5085307;28;43233;-83
2023/03/12 03:54:07;;;;;;;;;;;18.70;76.10;;;;;;5085105;28;42965;-84
2023/03/12 03:56:32;;;;;;;;;;;18.50;76.10;;;;;;5085115;28;43379;-84
2023/03/12 03:58:58;;;;;;;;;;;18.70;76.10;;;;;;5085808;28;43029;-84
2023/03/12 04:01:23;;;;;;;;;;;18.60;76.10;;;;;;5086308;28;42780;-82
2023/03/12 04:03:49;;;;;;;;;;;18.50;76.10;;;;;;5086193;28;42842;-83
2023/03/12 04:06:14;;;;;;;;;;;18.60;76.20;;;;;;5085800;28;42787;-81
2023/03/12 04:08:40;;;;;;;;;;;18.70;76.20;;;;;;5085711;28;42965;-84
2023/03/12 04:11:07;;;;;;;;;;;18.30;76.00;;;;;;5085796;28;43902;-86
2023/03/12 04:13:33;;;;;;;;;;;18.70;76.20;;;;;;5086096;28;43079;-84
2023/03/12 04:15:58;;;;;;;;;;;18.80;75.80;;;;;;5085509;28;43473;-85
2023/03/12 04:18:24;;;;;;;;;;;18.70;76.30;;;;;;5085808;28;42977;-84
2023/03/12 04:20:49;;;;;;;;;;;18.70;75.80;;;;;;5085237;28;44167;-85
2023/03/12 04:23:15;;;;;;;;;;;18.60;76.40;;;;;;5085198;28;43078;-82
2023/03/12 04:25:40;;;;;;;;;;;18.60;76.30;;;;;;5084516;28;42957;-83
2023/03/12 04:28:06;;;;;;;;;;;18.60;76.40;;;;;;5084625;28;43100;-83
2023/03/12 04:30:32;;;;;;;;;;;18.70;76.40;;;;;;5085726;28;43358;-83
2023/03/12 04:32:57;;;;;;;;;;;18.70;76.40;;;;;;5085859;28;42871;-83
2023/03/12 04:35:23;;;;;;;;;;;18.60;76.40;;;;;;5085051;28;43040;-82
2023/03/12 04:37:49;;;;;;;;;;;18.70;76.60;;;;;;5084934;28;42969;-82
2023/03/12 04:40:15;;;;;;;;;;;18.70;76.50;;;;;;5082346;28;42927;-82
2023/03/12 04:42:40;;;;;;;;;;;18.70;76.50;;;;;;5085476;28;42986;-82
2023/03/12 04:45:06;;;;;;;;;;;18.80;76.70;;;;;;5084957;28;42956;-82
2023/03/12 04:47:32;;;;;;;;;;;18.50;76.00;;;;;;5085497;28;42903;-82
2023/03/12 04:49:58;;;;;;;;;;;18.60;76.60;;;;;;5066915;28;42942;-83
2023/03/12 04:52:24;;;;;;;;;;;18.70;76.70;;;;;;5085419;28;43040;-80
2023/03/12 04:54:49;;;;;;;;;;;18.60;76.80;;;;;;5083452;27;43056;-84
2023/03/12 04:57:15;;;;;;;;;;;18.70;76.80;;;;;;5085022;28;43007;-83
2023/03/12 04:59:41;;;;;;;;;;;18.80;76.80;;;;;;5084514;27;43801;-83
2023/03/12 05:02:06;;;;;;;;;;;18.70;76.80;;;;;;5085127;28;43345;-83
2023/03/12 05:04:32;;;;;;;;;;;18.70;76.90;;;;;;5084909;28;43310;-82
2023/03/12 05:06:57;;;;;;;;;;;18.70;76.90;;;;;;5084624;28;42954;-82
2023/03/12 05:09:23;;;;;;;;;;;18.70;77.00;;;;;;5084338;28;44138;-82
2023/03/12 05:11:48;;;;;;;;;;;18.70;76.90;;;;;;5084879;28;42993;-82
2023/03/12 05:14:14;;;;;;;;;;;18.60;76.90;;;;;;5084609;28;42945;-83
2023/03/12 05:16:39;;;;;;;;;;;18.60;77.10;;;;;;5084769;28;43023;-83
2023/03/12 05:19:05;;;;;;;;;;;18.70;77.00;;;;;;5084735;28;43410;-84
2023/03/12 05:21:30;;;;;;;;;;;18.60;76.70;;;;;;5084830;28;42865;-82
2023/03/12 05:23:57;;;;;;;;;;;18.70;77.10;;;;;;5084634;28;43609;-82
2023/03/12 05:26:24;;;;;;;;;;;18.70;77.00;;;;;;5084316;28;42906;-80
2023/03/12 05:28:49;;;;;;;;;;;18.70;77.10;;;;;;5084285;28;42930;-80
2023/03/12 05:31:15;;;;;;;;;;;18.70;77.00;;;;;;5084601;28;42981;-80
2023/03/12 05:33:41;;;;;;;;;;;18.60;76.50;;;;;;5084076;28;43014;-79
2023/03/12 05:36:07;;;;;;;;;;;18.60;77.00;;;;;;5083026;27;42953;-80
2023/03/12 05:38:33;;;;;;;;;;;18.70;77.10;;;;;;5084478;28;42895;-78
2023/03/12 05:40:59;;;;;;;;;;;18.70;77.30;;;;;;5084360;28;42966;-78
2023/03/12 05:43:25;;;;;;;;;;;18.80;77.20;;;;;;5083883;28;42832;-79
2023/03/12 05:45:51;;;;;;;;;;;18.70;77.10;;;;;;5084285;28;43058;-78
2023/03/12 05:48:16;;;;;;;;;;;18.70;77.20;;;;;;5082659;27;42952;-79
2023/03/12 05:50:42;;;;;;;;;;;18.80;77.40;;;;;;5083948;28;43200;-80
2023/03/12 05:53:07;;;;;;;;;;;18.80;77.40;;;;;;5083899;28;43575;-78
2023/03/12 05:55:34;;;;;;;;;;;18.70;76.70;;;;;;5083800;28;43041;-79
2023/03/12 05:57:59;;;;;;;;;;;18.70;77.30;;;;;;5083837;28;43053;-78
2023/03/12 06:00:25;;;;;;;;;;;18.60;77.20;;;;;;5083770;28;43015;-79
2023/03/12 06:02:50;;;;;;;;;;;18.80;77.30;;;;;;5083363;28;42931;-79
2023/03/12 06:05:16;;;;;;;;;;;18.80;77.50;;;;;;5084210;28;42931;-79
2023/03/12 06:07:41;;;;;;;;;;;18.60;77.40;;;;;;5077144;27;43318;-79
2023/03/12 06:10:07;;;;;;;;;;;18.70;77.40;;;;;;5075305;28;43016;-79
2023/03/12 06:12:33;;;;;;;;;;;18.70;76.90;;;;;;5080838;28;43165;-78
2023/03/12 06:14:58;;;;;;;;;;;18.70;77.50;;;;;;5074438;28;43064;-77
2023/03/12 06:17:24;;;;;;;;;;;18.80;77.00;;;;;;5076824;28;43409;-78
2023/03/12 06:19:50;;;;;;;;;;;18.70;77.00;;;;;;5076494;28;42934;-78
2023/03/12 06:22:16;;;;;;;;;;;18.70;77.10;;;;;;5073346;28;43743;-79
2023/03/12 06:24:42;;;;;;;;;;;18.70;77.10;;;;;;5069859;28;42965;-78
2023/03/12 06:27:08;;;;;;;;;;;18.80;77.70;;;;;;5066817;28;43389;-78
2023/03/12 06:29:33;;;;;;;;;;;18.60;77.60;;;;;;5067173;28;43181;-78
2023/03/12 06:31:59;;;;;;;;;;;18.80;77.60;;;;;;5067028;28;42929;-78
2023/03/12 06:34:24;;;;;;;;;;;18.80;77.70;;;;;;5067051;28;42985;-78
2023/03/12 06:36:50;;;;;;;;;;;18.70;77.60;;;;;;5067221;28;43417;-79
2023/03/12 06:39:15;;;;;;;;;;;18.70;77.70;;;;;;5067254;28;42927;-79
2023/03/12 06:41:41;;;;;;;;;;;18.80;77.90;;;;;;5071838;27;43010;-79
2023/03/12 06:44:06;;;;;;;;;;;18.70;77.70;;;;;;5080695;27;42939;-79
2023/03/12 06:46:32;;;;;;;;;;;18.70;77.30;;;;;;5069851;28;42983;-78
2023/03/12 06:48:57;;;;;;;;;;;18.70;75.40;;;;;;5066590;28;42936;-79
2023/03/12 06:51:23;;;;;;;;;;;18.70;74.90;;;;;;5066839;28;42810;-79
2023/03/12 06:53:48;;;;;;;;;;;18.70;74.30;;;;;;5066364;28;43042;-78
2023/03/12 06:56:14;;;;;;;;;;;18.70;74.30;;;;;;5070414;28;43011;-78
2023/03/12 06:58:39;;;;;;;;;;;18.80;72.90;;;;;;5068441;28;43006;-80
2023/03/12 07:01:05;;;;;;;;;;;18.70;72.50;;;;;;5066636;28;42801;-78
2023/03/12 07:03:31;;;;;;;;;;;18.70;71.90;;;;;;5062248;28;43455;-78
2023/03/12 07:05:56;;;;;;;;;;;18.90;72.20;;;;;;5086976;28;43422;-77
2023/03/12 07:08:22;;;;;;;;;;;18.80;71.60;;;;;;5082898;28;42894;-77
2023/03/12 07:10:48;;;;;;;;;;;18.80;70.80;;;;;;5059713;28;44745;-79
2023/03/12 07:13:13;;;;;;;;;;;18.80;70.30;;;;;;5074732;28;42992;-77
2023/03/12 07:15:39;;;;;;;;;;;18.90;69.90;;;;;;5072698;28;43757;-81
2023/03/12 07:18:06;;;;;;;;;;;19.00;69.80;;;;;;5075156;28;42872;-78
2023/03/12 07:20:32;;;;;;;;;;;18.90;69.50;;;;;;5074776;28;42905;-78
2023/03/12 07:22:58;;;;;;;;;;;19.00;69.60;;;;;;5073551;28;43111;-78
2023/03/12 07:25:23;;;;;;;;;;;18.90;68.70;;;;;;5073809;28;42900;-79
2023/03/12 07:27:49;;;;;;;;;;;19.00;69.10;;;;;;5074580;28;42946;-82
2023/03/12 07:30:14;;;;;;;;;;;18.90;68.40;;;;;;5075878;28;43305;-82
2023/03/12 07:32:40;;;;;;;;;;;19.00;68.30;;;;;;5073986;28;43008;-81
2023/03/12 07:35:06;;;;;;;;;;;19.10;68.30;;;;;;5056333;28;44064;-80
2023/03/12 07:37:31;;;;;;;;;;;19.00;68.20;;;;;;5075617;28;43106;-82
2023/03/12 07:39:57;;;;;;;;;;;19.00;68.20;;;;;;5072511;28;44283;-80
2023/03/12 07:42:22;;;;;;;;;;;18.90;68.30;;;;;;5066002;28;42946;-81
2023/03/12 07:44:48;;;;;;;;;;;18.90;67.50;;;;;;5075681;28;43544;-83
2023/03/12 07:47:13;;;;;;;;;;;18.90;67.10;;;;;;5084629;28;43198;-81
2023/03/12 07:49:40;;;;;;;;;;;18.90;67.20;;;;;;5086068;28;43441;-81
2023/03/12 07:52:08;;;;;;;;;;;19.10;67.30;;;;;;5066032;28;42939;-80
2023/03/12 07:54:34;;;;;;;;;;;19.30;67.70;;;;;;5066238;28;44529;-79
2023/03/12 07:57:00;;;;;;;;;;;18.90;67.90;;;;;;5075703;27;43081;-80
2023/03/12 07:59:26;;;;;;;;;;;18.80;67.30;;;;;;5073485;28;43111;-80
2023/03/12 08:01:52;;;;;;;;;;;19.00;67.70;;;;;;5085662;28;43639;-80
2023/03/12 08:04:17;;;;;;;;;;;18.80;67.30;;;;;;5076848;28;43136;-80
2023/03/12 08:06:43;;;;;;;;;;;18.90;64.90;;;;;;5077033;27;43150;-79
2023/03/12 08:09:09;;;;;;;;;;;18.90;63.50;;;;;;5059176;28;42994;-79
2023/03/12 08:11:35;;;;;;;;;;;19.00;62.80;;;;;;5052482;28;43053;-79
2023/03/12 08:14:01;;;;;;;;;;;18.80;62.30;;;;;;5052834;28;43145;-79
2023/03/12 08:16:27;;;;;;;;;;;18.80;61.80;;;;;;5052715;28;42952;-79
2023/03/12 08:18:52;;;;;;;;;;;18.80;61.60;;;;;;5051526;28;43398;-79
2023/03/12 08:21:18;;;;;;;;;;;18.60;61.60;;;;;;5056804;28;42991;-79
2023/03/12 08:23:43;;;;;;;;;;;18.70;61.30;;;;;;5052038;28;43500;-78
2023/03/12 08:26:09;;;;;;;;;;;18.60;61.10;;;;;;5046588;28;42849;-79
2023/03/12 08:28:34;;;;;;;;;;;18.60;61.00;;;;;;5054995;28;42950;-79
2023/03/12 08:31:00;;;;;;;;;;;19.10;60.80;;;;;;5052553;28;42972;-79
2023/03/12 08:33:25;;;;;;;;;;;18.70;60.70;;;;;;5050729;28;44023;-85
2023/03/12 08:35:51;;;;;;;;;;;18.60;61.00;;;;;;5054018;28;43096;-85
2023/03/12 08:38:17;;;;;;;;;;;18.50;63.40;;;;;;5058404;28;43227;-83
2023/03/12 08:40:43;;;;;;;;;;;18.70;62.70;;;;;;5053675;28;43132;-81
2023/03/12 08:43:09;;;;;;;;;;;18.70;62.90;;;;;;5033700;28;44145;-82
2023/03/12 08:45:37;;;;;;;;;;;18.50;62.50;;;;;;5055153;28;42995;-82
2023/03/12 08:48:03;;;;;;;;;;;18.40;61.10;;;;;;5054001;28;43326;-81
2023/03/12 08:50:30;;;;;;;;;;;18.30;61.20;;;;;;5050886;28;42785;-81
2023/03/12 08:52:57;;;;;;;;;;;18.30;61.30;;;;;;5050794;28;43009;-81
2023/03/12 08:55:23;;;;;;;;;;;18.20;60.50;;;;;;5050973;28;43244;-80
2023/03/12 08:57:48;;;;;;;;;;;18.20;60.80;;;;;;5050794;28;42990;-79
2023/03/12 09:00:15;;;;;;;;;;;18.10;60.10;;;;;;5056111;28;43271;-84
2023/03/12 09:02:44;;;;;;;;;;;18.20;60.40;;;;;;5050258;28;43173;-84
2023/03/12 09:05:10;;;;;;;;;;;18.10;58.90;;;;;;5029842;28;43001;-87
2023/03/12 09:07:45;;;;;;;;;;;18.10;59.50;;;;;;5057565;28;42976;-89
2023/03/12 09:10:11;;;;;;;;;;;18.10;59.40;;;;;;5075778;27;43021;-83
2023/03/12 09:12:36;;;;;;;;;;;18.00;59.00;;;;;;5075005;28;44299;-84
2023/03/12 09:15:02;;;;;;;;;;;17.90;58.40;;;;;;5067175;28;43032;-85
2023/03/12 09:17:28;;;;;;;;;;;17.80;59.00;;;;;;5079735;27;42867;-81
2023/03/12 09:19:54;;;;;;;;;;;18.00;59.00;;;;;;5082913;27;43215;-81
2023/03/12 09:22:19;;;;;;;;;;;18.00;58.30;;;;;;5084501;27;42995;-82
2023/03/12 09:24:45;;;;;;;;;;;17.90;56.80;;;;;;5084904;27;43015;-82
2023/03/12 09:27:10;;;;;;;;;;;17.90;57.40;;;;;;5084719;27;43285;-81
2023/03/12 09:29:36;;;;;;;;;;;17.70;57.20;;;;;;5071715;27;43088;-80
2023/03/12 09:32:01;;;;;;;;;;;17.90;58.30;;;;;;5054919;28;42952;-78
2023/03/12 09:34:27;;;;;;;;;;;17.90;58.50;;;;;;5071162;27;43073;-85
2023/03/12 09:36:52;;;;;;;;;;;18.00;57.10;;;;;;5084043;27;42924;-79
2023/03/12 09:39:19;;;;;;;;;;;18.10;56.90;;;;;;5065267;27;43119;-78
2023/03/12 09:41:46;;;;;;;;;;;18.30;57.20;;;;;;5077453;27;43908;-79
2023/03/12 09:44:16;;;;;;;;;;;17.70;56.40;;;;;;5077666;27;43328;-79
2023/03/12 09:46:45;;;;;;;;;;;18.00;56.40;;;;;;5055265;28;45262;-78
2023/03/12 09:49:26;;;;;;;;;;;18.80;57.00;;;;;;5083223;27;42983;-78
2023/03/12 09:51:54;;;;;;;;;;;18.00;54.90;;;;;;5081375;27;43784;-78
2023/03/12 09:54:25;;;;;;;;;;;18.00;56.80;;;;;;5080228;27;43087;-78
2023/03/12 09:56:51;;;;;;;;;;;17.90;55.40;;;;;;5069324;27;44066;-78
2023/03/12 09:59:17;;;;;;;;;;;17.90;56.40;;;;;;5052854;28;43086;-79
2023/03/12 10:01:56;;;;;;;;;;;17.70;56.40;;;;;;5060501;28;45105;-79
2023/03/12 10:04:24;;;;;;;;;;;17.60;56.10;;;;;;5057396;28;43104;-78
2023/03/12 10:06:56;;;;;;;;;;;17.60;55.90;;;;;;5075498;22;43308;-79
2023/03/12 10:09:24;;;;;;;;;;;17.50;56.50;;;;;;5059990;28;43094;-79
2023/03/12 10:11:49;;;;;;;;;;;17.80;56.90;;;;;;5052226;28;43091;-78
2023/03/12 10:14:15;;;;;;;;;;;18.10;57.10;;;;;;5059779;28;42960;-80
2023/03/12 10:16:43;;;;;;;;;;;18.10;56.70;;;;;;5055064;28;43768;-80
2023/03/12 10:19:19;;;;;;;;;;;17.90;55.40;;;;;;5063813;28;42935;-81
2023/03/12 10:21:47;;;;;;;;;;;17.80;56.10;;;;;;5061443;28;42803;-80
2023/03/12 10:24:13;;;;;;;;;;;18.00;56.30;;;;;;5033360;28;43983;-81
2023/03/12 10:26:41;;;;;;;;;;;17.80;56.70;;;;;;5055384;28;43275;-80
2023/03/12 10:29:10;;;;;;;;;;;18.00;56.60;;;;;;5049365;28;42980;-80
2023/03/12 10:31:55;;;;;;;;;;;18.10;54.80;;;;;;5061245;28;43032;-80
2023/03/12 10:34:27;;;;;;;;;;;18.10;56.20;;;;;;5059262;28;43144;-79
2023/03/12 10:36:56;;;;;;;;;;;17.90;55.80;;;;;;5057774;28;42924;-80
2023/03/12 10:39:21;;;;;;;;;;;18.00;56.00;;;;;;5041822;28;43210;-80
2023/03/12 10:41:47;;;;;;;;;;;17.90;55.60;;;;;;5060863;28;43277;-81
2023/03/12 10:44:17;;;;;;;;;;;17.80;56.00;;;;;;5062332;28;42987;-80
2023/03/12 10:46:49;;;;;;;;;;;17.90;56.40;;;;;;5061567;28;42914;-80
2023/03/12 10:49:21;;;;;;;;;;;17.90;56.50;;;;;;5061991;28;43054;-80
2023/03/12 10:51:59;;;;;;;;;;;17.90;55.00;;;;;;5059821;28;43489;-81
2023/03/12 10:54:29;;;;;;;;;;;17.80;54.90;;;;;;5060653;28;43076;-82
2023/03/12 10:56:55;;;;;;;;;;;17.80;54.80;;;;;;5048594;28;43888;-80
2023/03/12 10:59:21;;;;;;;;;;;17.70;55.90;;;;;;5053639;28;43267;-84
2023/03/12 11:01:48;;;;;;;;;;;17.60;55.80;;;;;;5061413;28;42923;-87
2023/03/12 11:04:16;;;;;;;;;;;17.40;56.80;;;;;;5066575;28;42923;-81
2023/03/12 11:06:42;;;;;;;;;;;17.40;58.10;;;;;;5061380;28;43316;-81
2023/03/12 11:09:17;;;;;;;;;;;17.50;57.30;;;;;;5059714;28;42904;-81
2023/03/12 11:11:46;;;;;;;;;;;17.60;57.80;;;;;;5062079;28;43975;-80
2023/03/12 11:14:14;;;;;;;;;;;17.80;58.70;;;;;;5060541;28;42983;-83
2023/03/12 11:16:40;;;;;;;;;;;18.30;58.40;;;;;;5060198;28;44491;-81
2023/03/12 11:19:06;;;;;;;;;;;18.00;59.50;;;;;;5061728;28;43066;-83
2023/03/12 11:21:34;;;;;;;;;;;18.00;59.20;;;;;;5061695;28;43041;-82
2023/03/12 11:24:05;;;;;;;;;;;18.00;59.00;;;;;;5061068;28;43295;-82
2023/03/12 11:26:34;;;;;;;;;;;18.10;56.90;;;;;;5065780;28;44961;-81
2023/03/12 11:29:11;;;;;;;;;;;18.00;57.20;;;;;;5064444;28;42869;-83
2023/03/12 11:31:37;;;;;;;;;;;;;;;;;;5065233;28;43212;-83
2023/03/12 11:34:23;;;;;;;;;;;18.10;58.20;;;;;;5066110;28;42935;-81
2023/03/12 11:36:52;;;;;;;;;;;18.10;59.50;;;;;;5057938;28;42948;-83
2023/03/12 11:39:36;;;;;;;;;;;18.10;59.00;;;;;;5059249;28;43101;-83
2023/03/12 11:42:01;;;;;;;;;;;18.30;59.20;;;;;;5041622;28;44475;-84
2023/03/12 11:44:33;;;;;;;;;;;18.10;59.40;;;;;;5047533;28;42835;-85
2023/03/12 11:53:50;;;;;;;;;;;18.20;59.00;;;;;;4917755;28;42991;-81
2023/03/12 11:59:36;;;;;;;;;;;18.00;58.20;;;;;;4925274;28;43153;-84
2023/03/12 12:02:25;;;;;;;;;;;18.30;58.70;;;;;;4918551;28;43112;-83
2023/03/12 12:05:06;;;;;;;;;;;18.10;58.70;;;;;;4921343;28;44217;-83
2023/03/12 12:07:31;;;;;;;;;;;;;;;;;;4922281;28;43114;-78
2023/03/12 12:09:57;;;;;;;;;;;;;;;;;;4921639;28;43770;-79
2023/03/12 12:12:23;;;;;;;;;;;;;;;;;;4922996;28;43198;-81
2023/03/12 12:14:54;;;;;;;;;;;17.90;57.60;;;;;;4924345;28;43178;-83
2023/03/12 12:17:24;;;;;;;;;;;18.10;57.60;;;;;;4922482;28;43078;-79
2023/03/12 12:19:50;;;;;;;;;;;18.00;58.10;;;;;;4922008;28;43035;-82
2023/03/12 12:22:16;;;;;;;;;;;;;;;;;;4922687;28;43074;-81
2023/03/12 12:24:42;;;;;;;;;;;;;;;;;;4950952;28;43714;-79
2023/03/12 12:27:07;;;;;;;;;;;;;;;;;;5034304;28;42923;-80
2023/03/12 12:29:33;;;;;;;;;;;;;;;;;;5031977;28;44440;-80
2023/03/12 12:31:59;;;;;;;;;;;;;;;;;;5035978;28;43006;-80
2023/03/12 12:34:25;;;;;;;;;;;;;;;;;;5033208;28;43640;-83
2023/03/12 12:36:51;;;;;;;;;;;;;;;;;;5030898;28;43083;-83
2023/03/12 12:39:19;;;;;;;;;;;;;;;;;;5033690;28;62153;-82
2023/03/12 12:41:45;;;;;;;;;;;;;;;;;;5030534;28;43071;-84
2023/03/12 12:44:11;;;;;;;;;;;;;;;;;;5032181;28;43009;-84
2023/03/12 12:46:37;;;;;;;;;;;;;;;;;;5033076;28;43165;-79
2023/03/12 12:49:03;;;;;;;;;;;17.90;62.50;;;;;;5036422;28;43836;-82
2023/03/12 12:51:35;;;;;;;;;;;18.10;59.00;;;;;;5033607;28;43071;-84
2023/03/12 12:54:00;;;;;;;;;;;17.90;57.20;;;;;;5035468;28;42947;-85
2023/03/12 12:56:37;;;;;;;;;;;17.40;57.70;;;;;;5035183;28;42976;-84
2023/03/12 12:59:26;;;;;;;;;;;17.90;56.80;;;;;;5024374;28;44408;-82
2023/03/12 13:01:52;;;;;;;;;;;17.80;56.90;;;;;;5039938;28;42969;-80
2023/03/12 13:04:18;;;;;;;;;;;;;;;;;;5043663;28;43955;-82
2023/03/12 13:06:54;;;;;;;;;;;17.80;57.20;;;;;;5049837;28;42996;-80
2023/03/12 13:09:21;;;;;;;;;;;17.90;57.00;;;;;;5047391;28;43478;-81
2023/03/12 13:11:48;;;;;;;;;;;18.30;58.40;;;;;;5065857;28;42894;-80
2023/03/12 13:14:17;;;;;;;;;;;17.80;57.70;;;;;;5065917;28;43541;-82
2023/03/12 13:16:46;;;;;;;;;;;17.70;57.90;;;;;;5065649;28;42975;-80
2023/03/12 13:19:12;;;;;;;;;;;17.80;58.30;;;;;;5065149;28;43912;-79
2023/03/12 13:21:44;;;;;;;;;;;17.80;58.10;;;;;;5065355;28;42785;-80
2023/03/12 13:24:13;;;;;;;;;;;17.80;56.50;;;;;;5047142;28;45391;-80
2023/03/12 13:26:57;;;;;;;;;;;17.70;57.00;;;;;;5065590;28;42976;-81
2023/03/12 13:29:23;;;;;;;;;;;17.50;57.40;;;;;;5065483;28;43644;-80
2023/03/12 13:31:48;;;;;;;;;;;17.60;57.60;;;;;;5065010;28;43027;-81
2023/03/12 13:34:14;;;;;;;;;;;17.40;58.40;;;;;;5064870;28;43545;-79
2023/03/12 13:36:39;;;;;;;;;;;17.40;58.70;;;;;;5047209;28;42864;-82
2023/03/12 13:39:05;;;;;;;;;;;17.60;58.50;;;;;;5065214;28;43017;-79
2023/03/12 13:41:33;;;;;;;;;;;17.60;58.40;;;;;;5065362;28;42873;-79
2023/03/12 13:43:59;;;;;;;;;;;17.80;57.90;;;;;;5071486;22;43115;-78
2023/03/12 13:46:27;;;;;;;;;;;17.70;58.50;;;;;;5064540;28;43045;-80
2023/03/12 13:48:56;;;;;;;;;;;17.70;58.00;;;;;;5064405;28;42908;-79
2023/03/12 13:51:23;;;;;;;;;;;18.10;59.00;;;;;;5065145;28;42950;-79
2023/03/12 13:53:51;;;;;;;;;;;17.90;58.20;;;;;;5065399;28;42912;-79
2023/03/12 13:56:18;;;;;;;;;;;17.70;58.10;;;;;;5044382;28;43199;-79
2023/03/12 13:58:48;;;;;;;;;;;17.60;58.80;;;;;;5064979;28;42872;-78
2023/03/12 14:01:18;;;;;;;;;;;17.60;57.60;;;;;;5064992;28;42911;-80
2023/03/12 14:03:48;;;;;;;;;;;17.80;59.10;;;;;;5064459;28;43745;-78
2023/03/12 14:06:17;;;;;;;;;;;17.80;59.10;;;;;;5065416;28;42990;-78
2023/03/12 14:09:01;;;;;;;;;;;17.70;59.10;;;;;;5046120;28;44476;-79
2023/03/12 14:11:45;;;;;;;;;;;17.80;57.90;;;;;;5045864;28;42844;-79
2023/03/12 14:14:14;;;;;;;;;;;17.70;58.20;;;;;;5064650;28;42856;-79
2023/03/12 14:16:41;;;;;;;;;;;17.90;58.50;;;;;;5065445;28;43068;-79
2023/03/12 14:19:10;;;;;;;;;;;17.80;59.50;;;;;;5064880;28;42987;-79
2023/03/12 14:21:37;;;;;;;;;;;17.80;59.20;;;;;;5064659;28;42928;-79
2023/03/12 14:24:04;;;;;;;;;;;17.80;58.50;;;;;;5063933;28;43023;-79
2023/03/12 14:26:31;;;;;;;;;;;17.90;59.30;;;;;;5064492;28;42786;-79
2023/03/12 14:28:56;;;;;;;;;;;17.90;59.70;;;;;;5064900;28;42932;-79
2023/03/12 14:31:22;;;;;;;;;;;17.90;58.90;;;;;;5064461;28;43066;-79
2023/03/12 14:33:59;;;;;;;;;;;17.80;59.30;;;;;;5049613;28;44885;-79